sensor_id;sensor_type;location;lat;lon;timestamp;pressure;altitude;pressure_sealevel;temperature;humidity
77017;BME280;65949;53.132;17.930;2023-07-29T00:01:53;100364.58;;;14.91;81.01
77017;BME280;65949;53.132;17.930;2023-07-29T00:04:20;100367.19;;;14.89;81.03
77017;BME280;65949;53.132;17.930;2023-07-29T00:06:47;100372.56;;;14.86;80.99
77017;BME280;65949;53.132;17.930;2023-07-29T00:09:14;100368.19;;;14.82;81.02
77017;BME280;65949;53.132;17.930;2023-07-29T00:11:40;100370.38;;;14.79;81.20
77017;BME280;65949;53.132;17.930;2023-07-29T00:14:07;100373.80;;;14.78;81.16
77017;BME280;65949;53.132;17.930;2023-07-29T00:16:33;100371.55;;;14.75;81.15
77017;BME280;65949;53.132;17.930;2023-07-29T00:19:00;100373.73;;;14.73;81.13
77017;BME280;65949;53.132;17.930;2023-07-29T00:21:26;100372.13;;;14.71;81.17
77017;BME280;65949;53.132;17.930;2023-07-29T00:23:53;100370.34;;;14.68;81.19
77017;BME280;65949;53.132;17.930;2023-07-29T00:26:20;100368.98;;;14.65;81.25
77017;BME280;65949;53.132;17.930;2023-07-29T00:28:48;100372.39;;;14.61;81.19
77017;BME280;65949;53.132;17.930;2023-07-29T00:31:14;100371.39;;;14.57;81.18
77017;BME280;65949;53.132;17.930;2023-07-29T00:33:41;100375.58;;;14.55;81.01
77017;BME280;65949;53.132;17.930;2023-07-29T00:36:07;100375.41;;;14.52;80.94
77017;BME280;65949;53.132;17.930;2023-07-29T00:38:34;100375.18;;;14.49;80.84
77017;BME280;65949;53.132;17.930;2023-07-29T00:41:02;100374.42;;;14.47;80.68
77017;BME280;65949;53.132;17.930;2023-07-29T00:43:29;100376.40;;;14.45;80.57
77017;BME280;65949;53.132;17.930;2023-07-29T00:45:56;100378.02;;;14.42;80.62
77017;BME280;65949;53.132;17.930;2023-07-29T00:48:26;100378.11;;;14.38;80.53
77017;BME280;65949;53.132;17.930;2023-07-29T00:50:54;100383.28;;;14.36;80.67
77017;BME280;65949;53.132;17.930;2023-07-29T00:53:20;100380.84;;;14.34;80.98
77017;BME280;65949;53.132;17.930;2023-07-29T00:55:47;100384.90;;;14.33;81.09
77017;BME280;65949;53.132;17.930;2023-07-29T00:58:15;100385.19;;;14.31;81.40
77017;BME280;65949;53.132;17.930;2023-07-29T01:00:42;100387.99;;;14.29;81.62
77017;BME280;65949;53.132;17.930;2023-07-29T01:03:08;100388.38;;;14.28;81.59
77017;BME280;65949;53.132;17.930;2023-07-29T01:05:53;100391.58;;;14.28;81.69
77017;BME280;65949;53.132;17.930;2023-07-29T01:11:41;100383.53;;;14.25;81.78
77017;BME280;65949;53.132;17.930;2023-07-29T01:14:31;100384.77;;;14.24;81.56
77017;BME280;65949;53.132;17.930;2023-07-29T01:17:03;100381.21;;;14.21;81.38
77017;BME280;65949;53.132;17.930;2023-07-29T01:20:01;100377.96;;;14.20;81.39
77017;BME280;65949;53.132;17.930;2023-07-29T01:22:33;100377.90;;;14.17;81.28
77017;BME280;65949;53.132;17.930;2023-07-29T01:25:00;100374.95;;;14.14;81.17
77017;BME280;65949;53.132;17.930;2023-07-29T01:27:27;100371.27;;;14.12;81.10
77017;BME280;65949;53.132;17.930;2023-07-29T01:29:55;100368.20;;;14.09;81.07
77017;BME280;65949;53.132;17.930;2023-07-29T01:32:30;100362.42;;;14.05;81.07
77017;BME280;65949;53.132;17.930;2023-07-29T01:35:10;100362.80;;;14.00;80.96
77017;BME280;65949;53.132;17.930;2023-07-29T01:37:38;100362.48;;;13.97;80.95
77017;BME280;65949;53.132;17.930;2023-07-29T01:40:08;100365.34;;;13.95;80.93
77017;BME280;65949;53.132;17.930;2023-07-29T01:42:36;100366.20;;;13.92;80.79
77017;BME280;65949;53.132;17.930;2023-07-29T01:45:04;100365.91;;;13.90;80.81
77017;BME280;65949;53.132;17.930;2023-07-29T01:47:31;100362.65;;;13.87;80.76
77017;BME280;65949;53.132;17.930;2023-07-29T01:49:57;100364.77;;;13.84;80.67
77017;BME280;65949;53.132;17.930;2023-07-29T01:52:24;100365.29;;;13.81;80.72
77017;BME280;65949;53.132;17.930;2023-07-29T01:54:50;100365.46;;;13.79;80.74
77017;BME280;65949;53.132;17.930;2023-07-29T01:57:17;100369.77;;;13.78;80.69
77017;BME280;65949;53.132;17.930;2023-07-29T01:59:44;100375.94;;;13.76;80.70
77017;BME280;65949;53.132;17.930;2023-07-29T02:02:10;100373.16;;;13.71;80.89
77017;BME280;65949;53.132;17.930;2023-07-29T02:04:37;100377.27;;;13.65;80.96
77017;BME280;65949;53.132;17.930;2023-07-29T02:07:04;100381.73;;;13.61;81.08
77017;BME280;65949;53.132;17.930;2023-07-29T02:09:31;100380.10;;;13.58;80.77
77017;BME280;65949;53.132;17.930;2023-07-29T02:11:58;100380.70;;;13.56;81.03
77017;BME280;65949;53.132;17.930;2023-07-29T02:14:24;100378.86;;;13.52;81.23
77017;BME280;65949;53.132;17.930;2023-07-29T02:16:51;100379.14;;;13.50;81.15
77017;BME280;65949;53.132;17.930;2023-07-29T02:19:18;100384.25;;;13.48;81.08
77017;BME280;65949;53.132;17.930;2023-07-29T02:21:44;100389.13;;;13.46;80.89
77017;BME280;65949;53.132;17.930;2023-07-29T02:24:11;100391.88;;;13.44;80.57
77017;BME280;65949;53.132;17.930;2023-07-29T02:26:37;100391.33;;;13.42;80.77
77017;BME280;65949;53.132;17.930;2023-07-29T02:29:04;100391.91;;;13.39;80.57
77017;BME280;65949;53.132;17.930;2023-07-29T02:31:30;100392.83;;;13.36;80.49
77017;BME280;65949;53.132;17.930;2023-07-29T02:33:57;100396.64;;;13.33;80.51
77017;BME280;65949;53.132;17.930;2023-07-29T02:36:24;100391.59;;;13.30;80.51
77017;BME280;65949;53.132;17.930;2023-07-29T02:38:51;100391.15;;;13.27;80.64
77017;BME280;65949;53.132;17.930;2023-07-29T02:41:17;100393.90;;;13.24;80.58
77017;BME280;65949;53.132;17.930;2023-07-29T02:43:48;100391.52;;;13.20;80.56
77017;BME280;65949;53.132;17.930;2023-07-29T02:46:15;100393.90;;;13.17;80.54
77017;BME280;65949;53.132;17.930;2023-07-29T02:48:43;100398.77;;;13.16;80.66
77017;BME280;65949;53.132;17.930;2023-07-29T02:51:10;100398.62;;;13.15;80.55
77017;BME280;65949;53.132;17.930;2023-07-29T02:53:37;100399.16;;;13.13;80.54
77017;BME280;65949;53.132;17.930;2023-07-29T02:56:04;100403.89;;;13.11;80.54
77017;BME280;65949;53.132;17.930;2023-07-29T02:58:31;100411.39;;;13.09;80.56
77017;BME280;65949;53.132;17.930;2023-07-29T03:01:02;100411.98;;;13.07;80.50
77017;BME280;65949;53.132;17.930;2023-07-29T03:03:29;100417.30;;;13.04;80.74
77017;BME280;65949;53.132;17.930;2023-07-29T03:06:04;100408.84;;;12.99;80.88
77017;BME280;65949;53.132;17.930;2023-07-29T03:08:31;100415.86;;;12.98;80.97
77017;BME280;65949;53.132;17.930;2023-07-29T03:10:58;100415.02;;;12.97;80.94
77017;BME280;65949;53.132;17.930;2023-07-29T03:13:25;100417.64;;;12.98;80.81
77017;BME280;65949;53.132;17.930;2023-07-29T03:15:51;100414.93;;;12.99;80.67
77017;BME280;65949;53.132;17.930;2023-07-29T03:18:18;100416.91;;;13.00;80.46
77017;BME280;65949;53.132;17.930;2023-07-29T03:20:45;100413.25;;;13.00;80.55
77017;BME280;65949;53.132;17.930;2023-07-29T03:23:11;100416.53;;;13.02;80.56
77017;BME280;65949;53.132;17.930;2023-07-29T03:25:38;100416.50;;;13.05;80.50
77017;BME280;65949;53.132;17.930;2023-07-29T03:28:04;100410.03;;;13.09;80.63
77017;BME280;65949;53.132;17.930;2023-07-29T03:30:31;100409.40;;;13.10;80.27
77017;BME280;65949;53.132;17.930;2023-07-29T03:32:58;100409.30;;;13.08;80.48
77017;BME280;65949;53.132;17.930;2023-07-29T03:35:24;100411.92;;;13.09;80.61
77017;BME280;65949;53.132;17.930;2023-07-29T03:37:51;100407.95;;;13.13;80.69
77017;BME280;65949;53.132;17.930;2023-07-29T03:40:17;100403.33;;;13.17;80.61
77017;BME280;65949;53.132;17.930;2023-07-29T03:42:44;100406.46;;;13.23;80.45
77017;BME280;65949;53.132;17.930;2023-07-29T03:45:11;100411.42;;;13.30;80.35
77017;BME280;65949;53.132;17.930;2023-07-29T03:47:38;100414.81;;;13.38;80.23
77017;BME280;65949;53.132;17.930;2023-07-29T03:50:05;100411.86;;;13.46;79.97
77017;BME280;65949;53.132;17.930;2023-07-29T03:52:32;100412.27;;;13.57;80.09
77017;BME280;65949;53.132;17.930;2023-07-29T03:54:59;100414.48;;;13.66;79.73
77017;BME280;65949;53.132;17.930;2023-07-29T03:57:25;100419.85;;;13.73;79.86
77017;BME280;65949;53.132;17.930;2023-07-29T03:59:52;100424.88;;;13.84;79.66
77017;BME280;65949;53.132;17.930;2023-07-29T04:02:19;100424.37;;;14.01;79.44
77017;BME280;65949;53.132;17.930;2023-07-29T04:04:46;100424.78;;;14.30;78.76
77017;BME280;65949;53.132;17.930;2023-07-29T04:07:14;100429.35;;;14.68;78.40
77017;BME280;65949;53.132;17.930;2023-07-29T04:09:41;100432.41;;;14.92;77.67
77017;BME280;65949;53.132;17.930;2023-07-29T04:12:09;100430.55;;;14.84;77.58
77017;BME280;65949;53.132;17.930;2023-07-29T04:14:36;100431.74;;;14.91;77.50
77017;BME280;65949;53.132;17.930;2023-07-29T04:17:03;100435.25;;;15.13;77.14
77017;BME280;65949;53.132;17.930;2023-07-29T04:19:30;100438.69;;;15.65;76.35
77017;BME280;65949;53.132;17.930;2023-07-29T04:21:56;100442.23;;;16.16;75.24
77017;BME280;65949;53.132;17.930;2023-07-29T04:24:23;100442.19;;;16.59;74.38
77017;BME280;65949;53.132;17.930;2023-07-29T04:26:49;100439.23;;;16.97;73.62
77017;BME280;65949;53.132;17.930;2023-07-29T04:29:16;100437.23;;;17.08;73.21
77017;BME280;65949;53.132;17.930;2023-07-29T04:31:43;100436.17;;;17.74;71.79
77017;BME280;65949;53.132;17.930;2023-07-29T04:34:09;100438.70;;;18.56;70.47
77017;BME280;65949;53.132;17.930;2023-07-29T04:36:36;100440.42;;;19.16;69.04
77017;BME280;65949;53.132;17.930;2023-07-29T04:39:02;100444.64;;;19.75;67.72
77017;BME280;65949;53.132;17.930;2023-07-29T04:41:29;100443.00;;;20.08;66.96
77017;BME280;65949;53.132;17.930;2023-07-29T04:43:56;100443.01;;;20.05;66.53
77017;BME280;65949;53.132;17.930;2023-07-29T04:46:23;100445.45;;;20.30;65.80
77017;BME280;65949;53.132;17.930;2023-07-29T04:48:49;100447.39;;;20.88;64.37
77017;BME280;65949;53.132;17.930;2023-07-29T04:51:16;100451.95;;;21.58;62.88
77017;BME280;65949;53.132;17.930;2023-07-29T04:53:43;100450.81;;;22.02;61.47
77017;BME280;65949;53.132;17.930;2023-07-29T04:56:09;100447.09;;;22.24;60.36
77017;BME280;65949;53.132;17.930;2023-07-29T04:58:36;100448.12;;;22.66;59.32
77017;BME280;65949;53.132;17.930;2023-07-29T05:01:03;100451.50;;;23.00;58.40
77017;BME280;65949;53.132;17.930;2023-07-29T05:03:30;100457.78;;;23.38;57.85
77017;BME280;65949;53.132;17.930;2023-07-29T05:05:58;100457.90;;;23.83;56.73
77017;BME280;65949;53.132;17.930;2023-07-29T05:08:26;100455.84;;;24.11;56.06
77017;BME280;65949;53.132;17.930;2023-07-29T05:10:53;100450.63;;;24.36;55.12
77017;BME280;65949;53.132;17.930;2023-07-29T05:13:22;100450.84;;;24.57;54.08
77017;BME280;65949;53.132;17.930;2023-07-29T05:15:49;100450.77;;;24.63;53.84
77017;BME280;65949;53.132;17.930;2023-07-29T05:18:16;100451.40;;;24.68;53.66
77017;BME280;65949;53.132;17.930;2023-07-29T05:20:43;100453.05;;;24.89;53.09
77017;BME280;65949;53.132;17.930;2023-07-29T05:23:10;100448.24;;;24.66;53.30
77017;BME280;65949;53.132;17.930;2023-07-29T05:25:36;100444.14;;;23.96;53.96
77017;BME280;65949;53.132;17.930;2023-07-29T05:28:03;100445.25;;;23.54;54.60
77017;BME280;65949;53.132;17.930;2023-07-29T05:30:30;100442.91;;;23.98;53.97
77017;BME280;65949;53.132;17.930;2023-07-29T05:33:00;100441.23;;;24.42;53.04
77017;BME280;65949;53.132;17.930;2023-07-29T05:35:27;100440.81;;;24.54;52.70
77017;BME280;65949;53.132;17.930;2023-07-29T05:37:54;100441.14;;;24.59;52.72
77017;BME280;65949;53.132;17.930;2023-07-29T05:40:20;100443.11;;;24.80;52.59
77017;BME280;65949;53.132;17.930;2023-07-29T05:42:47;100444.23;;;25.02;52.36
77017;BME280;65949;53.132;17.930;2023-07-29T05:45:14;100444.33;;;25.11;51.81
77017;BME280;65949;53.132;17.930;2023-07-29T05:47:41;100444.59;;;25.33;51.55
77017;BME280;65949;53.132;17.930;2023-07-29T05:50:08;100440.16;;;25.50;50.96
77017;BME280;65949;53.132;17.930;2023-07-29T05:52:35;100443.83;;;25.69;50.77
77017;BME280;65949;53.132;17.930;2023-07-29T05:55:01;100442.86;;;25.81;50.74
77017;BME280;65949;53.132;17.930;2023-07-29T05:57:28;100441.55;;;26.03;50.44
77017;BME280;65949;53.132;17.930;2023-07-29T05:59:55;100443.96;;;26.22;50.06
77017;BME280;65949;53.132;17.930;2023-07-29T06:02:21;100442.89;;;26.34;49.63
77017;BME280;65949;53.132;17.930;2023-07-29T06:04:48;100441.45;;;26.41;48.83
77017;BME280;65949;53.132;17.930;2023-07-29T06:07:14;100446.05;;;26.41;48.55
77017;BME280;65949;53.132;17.930;2023-07-29T06:09:41;100448.13;;;26.37;48.82
77017;BME280;65949;53.132;17.930;2023-07-29T06:12:08;100450.14;;;26.27;48.86
77017;BME280;65949;53.132;17.930;2023-07-29T06:14:35;100450.05;;;26.10;48.97
77017;BME280;65949;53.132;17.930;2023-07-29T06:17:01;100446.02;;;26.01;49.24
77017;BME280;65949;53.132;17.930;2023-07-29T06:19:28;100444.83;;;25.89;49.17
77017;BME280;65949;53.132;17.930;2023-07-29T06:21:55;100443.22;;;25.79;49.60
77017;BME280;65949;53.132;17.930;2023-07-29T06:24:22;100441.22;;;25.55;50.07
77017;BME280;65949;53.132;17.930;2023-07-29T06:26:49;100440.78;;;25.26;50.41
77017;BME280;65949;53.132;17.930;2023-07-29T06:29:15;100441.42;;;24.95;51.07
77017;BME280;65949;53.132;17.930;2023-07-29T06:31:42;100436.55;;;24.65;51.40
77017;BME280;65949;53.132;17.930;2023-07-29T06:34:08;100436.17;;;24.33;52.01
77017;BME280;65949;53.132;17.930;2023-07-29T06:36:35;100436.73;;;24.00;52.78
77017;BME280;65949;53.132;17.930;2023-07-29T06:39:01;100441.92;;;23.67;53.37
77017;BME280;65949;53.132;17.930;2023-07-29T06:41:28;100439.86;;;23.29;53.86
77017;BME280;65949;53.132;17.930;2023-07-29T06:43:54;100440.23;;;22.99;54.55
77017;BME280;65949;53.132;17.930;2023-07-29T06:46:21;100444.04;;;22.77;54.82
77017;BME280;65949;53.132;17.930;2023-07-29T06:48:48;100446.28;;;22.60;55.54
77017;BME280;65949;53.132;17.930;2023-07-29T06:51:14;100452.06;;;22.53;55.89
77017;BME280;65949;53.132;17.930;2023-07-29T06:53:41;100451.70;;;22.48;56.25
77017;BME280;65949;53.132;17.930;2023-07-29T06:56:07;100451.08;;;22.41;56.54
77017;BME280;65949;53.132;17.930;2023-07-29T06:58:34;100447.51;;;22.35;56.94
77017;BME280;65949;53.132;17.930;2023-07-29T07:01:01;100443.52;;;22.34;57.05
77017;BME280;65949;53.132;17.930;2023-07-29T07:03:29;100441.25;;;22.32;57.03
77017;BME280;65949;53.132;17.930;2023-07-29T07:05:56;100437.73;;;22.31;57.11
77017;BME280;65949;53.132;17.930;2023-07-29T07:08:22;100435.83;;;22.36;57.21
77017;BME280;65949;53.132;17.930;2023-07-29T07:10:49;100432.69;;;22.40;57.20
77017;BME280;65949;53.132;17.930;2023-07-29T07:13:16;100433.40;;;22.43;57.20
77017;BME280;65949;53.132;17.930;2023-07-29T07:15:42;100433.52;;;22.43;56.99
77017;BME280;65949;53.132;17.930;2023-07-29T07:18:09;100430.14;;;22.41;57.20
77017;BME280;65949;53.132;17.930;2023-07-29T07:20:36;100431.35;;;22.46;57.36
77017;BME280;65949;53.132;17.930;2023-07-29T07:23:03;100426.28;;;22.56;57.28
77017;BME280;65949;53.132;17.930;2023-07-29T07:25:31;100426.80;;;22.63;57.28
77017;BME280;65949;53.132;17.930;2023-07-29T07:27:58;100424.63;;;22.70;56.80
77017;BME280;65949;53.132;17.930;2023-07-29T07:30:24;100426.45;;;22.75;56.35
77017;BME280;65949;53.132;17.930;2023-07-29T07:32:51;100424.96;;;22.76;56.92
77017;BME280;65949;53.132;17.930;2023-07-29T07:35:17;100425.71;;;22.82;56.85
77017;BME280;65949;53.132;17.930;2023-07-29T07:37:45;100426.11;;;22.91;56.79
77017;BME280;65949;53.132;17.930;2023-07-29T07:40:11;100424.84;;;22.97;56.60
77017;BME280;65949;53.132;17.930;2023-07-29T07:42:38;100427.48;;;23.08;56.38
77017;BME280;65949;53.132;17.930;2023-07-29T07:45:05;100424.67;;;23.13;56.11
77017;BME280;65949;53.132;17.930;2023-07-29T07:47:32;100423.64;;;23.17;55.84
77017;BME280;65949;53.132;17.930;2023-07-29T07:49:58;100414.73;;;23.17;55.51
77017;BME280;65949;53.132;17.930;2023-07-29T07:52:25;100417.38;;;23.11;55.04
77017;BME280;65949;53.132;17.930;2023-07-29T07:54:55;100412.52;;;23.05;55.03
77017;BME280;65949;53.132;17.930;2023-07-29T07:57:21;100413.81;;;23.02;55.19
77017;BME280;65949;53.132;17.930;2023-07-29T07:59:48;100411.23;;;22.99;55.27
77017;BME280;65949;53.132;17.930;2023-07-29T08:02:15;100414.89;;;23.02;55.39
77017;BME280;65949;53.132;17.930;2023-07-29T08:04:41;100413.65;;;23.07;55.31
77017;BME280;65949;53.132;17.930;2023-07-29T08:07:08;100407.16;;;23.15;54.42
77017;BME280;65949;53.132;17.930;2023-07-29T08:09:35;100403.78;;;23.13;54.89
77017;BME280;65949;53.132;17.930;2023-07-29T08:12:01;100401.88;;;23.13;54.99
77017;BME280;65949;53.132;17.930;2023-07-29T08:14:28;100405.12;;;23.12;54.83
77017;BME280;65949;53.132;17.930;2023-07-29T08:16:54;100406.16;;;23.15;54.84
77017;BME280;65949;53.132;17.930;2023-07-29T08:19:21;100403.90;;;23.23;54.47
77017;BME280;65949;53.132;17.930;2023-07-29T08:21:47;100398.73;;;23.35;53.62
77017;BME280;65949;53.132;17.930;2023-07-29T08:24:14;100394.60;;;23.46;53.25
77017;BME280;65949;53.132;17.930;2023-07-29T08:26:41;100394.34;;;23.61;53.31
77017;BME280;65949;53.132;17.930;2023-07-29T08:29:07;100393.48;;;23.69;53.33
77017;BME280;65949;53.132;17.930;2023-07-29T08:31:34;100386.35;;;23.77;53.46
77017;BME280;65949;53.132;17.930;2023-07-29T08:34:00;100383.61;;;23.92;53.60
77017;BME280;65949;53.132;17.930;2023-07-29T08:36:27;100377.45;;;24.06;53.06
77017;BME280;65949;53.132;17.930;2023-07-29T08:38:53;100380.05;;;24.21;52.92
77017;BME280;65949;53.132;17.930;2023-07-29T08:41:32;100373.06;;;24.36;53.08
77017;BME280;65949;53.132;17.930;2023-07-29T08:44:23;100374.06;;;24.56;52.45
77017;BME280;65949;53.132;17.930;2023-07-29T08:46:50;100370.39;;;24.73;51.75
77017;BME280;65949;53.132;17.930;2023-07-29T08:49:22;100378.32;;;24.85;51.57
77017;BME280;65949;53.132;17.930;2023-07-29T08:51:53;100378.59;;;24.84;50.80
77017;BME280;65949;53.132;17.930;2023-07-29T08:54:20;100378.11;;;24.74;50.06
77017;BME280;65949;53.132;17.930;2023-07-29T08:56:47;100370.77;;;24.62;50.52
77017;BME280;65949;53.132;17.930;2023-07-29T08:59:14;100370.61;;;24.69;50.75
77017;BME280;65949;53.132;17.930;2023-07-29T09:01:43;100372.27;;;24.88;50.93
77017;BME280;65949;53.132;17.930;2023-07-29T09:04:10;100369.86;;;24.94;50.36
77017;BME280;65949;53.132;17.930;2023-07-29T09:06:37;100367.45;;;24.70;50.17
77017;BME280;65949;53.132;17.930;2023-07-29T09:09:05;100363.05;;;24.64;50.95
77017;BME280;65949;53.132;17.930;2023-07-29T09:11:36;100367.52;;;24.70;50.56
77017;BME280;65949;53.132;17.930;2023-07-29T09:14:03;100363.30;;;24.72;50.72
77017;BME280;65949;53.132;17.930;2023-07-29T09:16:30;100360.50;;;24.77;50.51
77017;BME280;65949;53.132;17.930;2023-07-29T09:19:03;100361.14;;;24.79;50.51
77017;BME280;65949;53.132;17.930;2023-07-29T09:21:30;100363.99;;;24.85;50.63
77017;BME280;65949;53.132;17.930;2023-07-29T09:24:02;100363.80;;;25.00;50.58
77017;BME280;65949;53.132;17.930;2023-07-29T09:26:30;100365.30;;;25.07;50.22
77017;BME280;65949;53.132;17.930;2023-07-29T09:28:58;100367.48;;;25.19;50.01
77017;BME280;65949;53.132;17.930;2023-07-29T09:31:28;100365.41;;;25.22;50.02
77017;BME280;65949;53.132;17.930;2023-07-29T09:33:59;100357.69;;;25.21;49.72
77017;BME280;65949;53.132;17.930;2023-07-29T09:36:30;100353.83;;;25.26;49.47
77017;BME280;65949;53.132;17.930;2023-07-29T09:38:59;100356.02;;;25.39;49.22
77017;BME280;65949;53.132;17.930;2023-07-29T09:41:27;100356.36;;;25.41;48.64
77017;BME280;65949;53.132;17.930;2023-07-29T09:43:56;100353.21;;;25.35;48.95
77017;BME280;65949;53.132;17.930;2023-07-29T09:46:25;100353.09;;;25.37;48.90
77017;BME280;65949;53.132;17.930;2023-07-29T09:48:54;100353.67;;;25.30;49.22
77017;BME280;65949;53.132;17.930;2023-07-29T09:51:23;100356.23;;;25.16;49.17
77017;BME280;65949;53.132;17.930;2023-07-29T09:53:51;100351.54;;;25.09;49.30
77017;BME280;65949;53.132;17.930;2023-07-29T09:56:26;100349.58;;;24.97;48.99
77017;BME280;65949;53.132;17.930;2023-07-29T09:58:55;100344.42;;;24.85;48.99
77017;BME280;65949;53.132;17.930;2023-07-29T10:01:23;100335.55;;;24.88;48.72
77017;BME280;65949;53.132;17.930;2023-07-29T10:03:50;100336.70;;;24.93;49.29
77017;BME280;65949;53.132;17.930;2023-07-29T10:06:18;100333.47;;;25.00;48.63
77017;BME280;65949;53.132;17.930;2023-07-29T10:08:45;100336.61;;;25.09;48.85
77017;BME280;65949;53.132;17.930;2023-07-29T10:11:12;100330.31;;;25.25;48.53
77017;BME280;65949;53.132;17.930;2023-07-29T10:13:38;100330.80;;;25.39;48.01
77017;BME280;65949;53.132;17.930;2023-07-29T10:16:05;100330.09;;;25.48;47.81
77017;BME280;65949;53.132;17.930;2023-07-29T10:18:33;100331.00;;;25.63;47.42
77017;BME280;65949;53.132;17.930;2023-07-29T10:21:01;100328.56;;;25.74;47.82
77017;BME280;65949;53.132;17.930;2023-07-29T10:23:32;100325.41;;;25.89;47.45
77017;BME280;65949;53.132;17.930;2023-07-29T10:26:05;100323.80;;;26.10;47.03
77017;BME280;65949;53.132;17.930;2023-07-29T10:28:32;100321.38;;;26.31;46.47
77017;BME280;65949;53.132;17.930;2023-07-29T10:31:02;100319.77;;;26.37;46.61
77017;BME280;65949;53.132;17.930;2023-07-29T10:33:31;100322.20;;;26.56;46.47
77017;BME280;65949;53.132;17.930;2023-07-29T10:35:59;100317.13;;;26.82;45.48
77017;BME280;65949;53.132;17.930;2023-07-29T10:38:27;100317.96;;;26.89;45.89
77017;BME280;65949;53.132;17.930;2023-07-29T10:40:55;100317.84;;;27.01;45.46
77017;BME280;65949;53.132;17.930;2023-07-29T10:43:33;100311.41;;;27.11;45.04
77017;BME280;65949;53.132;17.930;2023-07-29T10:46:19;100311.55;;;27.18;45.21
77017;BME280;65949;53.132;17.930;2023-07-29T10:53:58;100295.89;;;27.19;44.75
77017;BME280;65949;53.132;17.930;2023-07-29T10:56:31;100294.15;;;27.21;44.77
77017;BME280;65949;53.132;17.930;2023-07-29T11:01:50;100278.54;;;27.20;44.44
77017;BME280;65949;53.132;17.930;2023-07-29T11:17:33;100264.36;;;27.33;44.10
77017;BME280;65949;53.132;17.930;2023-07-29T11:20:03;100265.32;;;27.40;44.63
77017;BME280;65949;53.132;17.930;2023-07-29T11:22:30;100257.40;;;27.44;44.79
77017;BME280;65949;53.132;17.930;2023-07-29T11:24:57;100257.31;;;27.56;45.06
77017;BME280;65949;53.132;17.930;2023-07-29T11:27:24;100250.00;;;27.65;44.73
77017;BME280;65949;53.132;17.930;2023-07-29T11:29:56;100248.10;;;27.66;44.06
77017;BME280;65949;53.132;17.930;2023-07-29T11:32:24;100242.56;;;27.60;44.25
77017;BME280;65949;53.132;17.930;2023-07-29T11:34:51;100241.42;;;27.63;44.39
77017;BME280;65949;53.132;17.930;2023-07-29T11:37:17;100241.94;;;27.75;44.58
77017;BME280;65949;53.132;17.930;2023-07-29T11:39:44;100238.80;;;27.86;44.01
77017;BME280;65949;53.132;17.930;2023-07-29T11:42:15;100235.39;;;27.91;43.71
77017;BME280;65949;53.132;17.930;2023-07-29T11:44:42;100228.80;;;27.96;43.96
77017;BME280;65949;53.132;17.930;2023-07-29T11:47:10;100227.33;;;27.90;44.03
77017;BME280;65949;53.132;17.930;2023-07-29T11:49:39;100226.41;;;27.88;43.24
77017;BME280;65949;53.132;17.930;2023-07-29T11:52:07;100227.87;;;27.76;43.41
77017;BME280;65949;53.132;17.930;2023-07-29T11:54:36;100229.10;;;27.62;44.17
77017;BME280;65949;53.132;17.930;2023-07-29T11:57:07;100223.90;;;27.63;44.55
77017;BME280;65949;53.132;17.930;2023-07-29T11:59:35;100220.88;;;27.84;44.63
77017;BME280;65949;53.132;17.930;2023-07-29T12:02:06;100217.12;;;28.03;44.09
77017;BME280;65949;53.132;17.930;2023-07-29T12:04:35;100214.85;;;28.13;43.95
77017;BME280;65949;53.132;17.930;2023-07-29T12:07:02;100208.28;;;28.22;43.85
77017;BME280;65949;53.132;17.930;2023-07-29T12:09:29;100203.23;;;28.35;43.88
77017;BME280;65949;53.132;17.930;2023-07-29T12:11:57;100195.16;;;28.43;42.51
77017;BME280;65949;53.132;17.930;2023-07-29T12:14:30;100190.04;;;28.49;42.23
77017;BME280;65949;53.132;17.930;2023-07-29T12:17:03;100189.17;;;28.41;41.64
77017;BME280;65949;53.132;17.930;2023-07-29T12:19:34;100186.09;;;28.37;42.27
77017;BME280;65949;53.132;17.930;2023-07-29T12:22:02;100189.18;;;28.46;42.85
77017;BME280;65949;53.132;17.930;2023-07-29T12:24:34;100184.90;;;28.57;42.79
77017;BME280;65949;53.132;17.930;2023-07-29T12:27:01;100184.89;;;28.58;42.60
77017;BME280;65949;53.132;17.930;2023-07-29T12:29:28;100180.92;;;28.54;42.81
77017;BME280;65949;53.132;17.930;2023-07-29T12:32:00;100171.66;;;28.50;43.22
77017;BME280;65949;53.132;17.930;2023-07-29T12:34:28;100171.19;;;28.52;43.50
77017;BME280;65949;53.132;17.930;2023-07-29T12:36:56;100160.92;;;28.51;42.98
77017;BME280;65949;53.132;17.930;2023-07-29T12:39:31;100153.86;;;28.62;42.78
77017;BME280;65949;53.132;17.930;2023-07-29T12:41:59;100156.24;;;28.66;42.84
77017;BME280;65949;53.132;17.930;2023-07-29T12:44:35;100152.94;;;28.67;42.07
77017;BME280;65949;53.132;17.930;2023-07-29T12:47:03;100148.97;;;28.58;42.49
77017;BME280;65949;53.132;17.930;2023-07-29T12:49:30;100147.81;;;28.60;43.65
77017;BME280;65949;53.132;17.930;2023-07-29T12:51:57;100150.09;;;28.80;43.33
77017;BME280;65949;53.132;17.930;2023-07-29T12:54:25;100147.77;;;28.96;42.89
77017;BME280;65949;53.132;17.930;2023-07-29T12:56:52;100140.41;;;29.03;42.38
77017;BME280;65949;53.132;17.930;2023-07-29T12:59:18;100137.08;;;29.14;42.33
77017;BME280;65949;53.132;17.930;2023-07-29T13:01:45;100131.24;;;29.17;41.74
77017;BME280;65949;53.132;17.930;2023-07-29T13:04:12;100131.11;;;29.13;42.42
77017;BME280;65949;53.132;17.930;2023-07-29T13:06:38;100123.63;;;29.23;42.52
77017;BME280;65949;53.132;17.930;2023-07-29T13:09:05;100121.70;;;29.29;42.30